Time;durP1;ratioP1;P1;durP2;ratioP2;P2;SDS_P1;SDS_P2;PMS_P1;PMS_P2;Temp;Humidity;BMP_temperature;BMP_pressure;BME280_temperature;BME280_humidity;BME280_pressure;Samples;Min_cycle;Max_cycle;Signal;HPM_P1;HPM_P2
2023/04/08 00:00:51;;;;;;;20.15;13.75;;;;;;;8.67;100.00;102104.97;5036198;28;20053;-65
2023/04/08 00:03:20;;;;;;;25.20;14.52;;;;;;;8.63;100.00;102105.63;5052591;28;20135;-65
2023/04/08 00:05:48;;;;;;;20.80;14.18;;;;;;;8.62;100.00;102109.41;5034375;28;20073;-67
2023/04/08 00:08:16;;;;;;;24.85;14.43;;;;;;;8.61;100.00;102116.75;5037343;28;20041;-65
2023/04/08 00:10:43;;;;;;;22.02;14.25;;;;;;;8.63;100.00;102111.88;5037165;28;20140;-65
2023/04/08 00:13:12;;;;;;;20.77;13.80;;;;;;;8.65;100.00;102108.97;5036007;28;20056;-66
2023/04/08 00:15:40;;;;;;;24.10;14.82;;;;;;;8.66;100.00;102113.31;5036853;28;20091;-65
2023/04/08 00:18:08;;;;;;;23.63;15.38;;;;;;;8.65;100.00;102108.97;5052392;28;20107;-65
2023/04/08 00:20:36;;;;;;;24.25;15.40;;;;;;;8.65;100.00;102103.53;5060217;28;20048;-65
2023/04/08 00:23:03;;;;;;;24.65;15.35;;;;;;;8.65;100.00;102109.78;5042166;28;20045;-66
2023/04/08 00:25:31;;;;;;;23.17;15.27;;;;;;;8.66;100.00;102110.59;5036333;28;20045;-65
2023/04/08 00:27:59;;;;;;;27.30;16.67;;;;;;;8.67;100.00;102113.09;5046073;28;20128;-65
2023/04/08 00:30:27;;;;;;;22.20;16.42;;;;;;;8.67;100.00;102109.56;5055637;28;20079;-66
2023/04/08 00:32:56;;;;;;;25.67;17.95;;;;;;;8.66;100.00;102111.47;5039142;28;20049;-65
2023/04/08 00:35:24;;;;;;;24.05;16.55;;;;;;;8.63;100.00;102114.59;5036826;28;20045;-66
2023/04/08 00:37:52;;;;;;;23.88;16.85;;;;;;;8.63;100.00;102121.94;5035768;28;20045;-66
2023/04/08 00:40:20;;;;;;;22.95;16.98;;;;;;;8.63;100.00;102109.16;5036803;28;20091;-65
2023/04/08 00:42:48;;;;;;;31.27;18.70;;;;;;;8.65;100.00;102115.22;5036312;28;20060;-66
2023/04/08 00:45:15;;;;;;;29.88;17.75;;;;;;;8.67;100.00;102117.72;5034618;28;20084;-66
2023/04/08 00:47:43;;;;;;;29.88;18.65;;;;;;;8.67;100.00;102117.72;5035722;28;20085;-65
2023/04/08 00:50:11;;;;;;;28.45;18.02;;;;;;;8.67;100.00;102117.72;5049337;28;20486;-66
2023/04/08 00:52:39;;;;;;;25.85;17.92;;;;;;;8.67;100.00;102117.72;5035176;28;20509;-65
2023/04/08 00:55:07;;;;;;;31.23;18.90;;;;;;;8.68;100.00;102127.50;5035378;28;20577;-66
2023/04/08 00:57:35;;;;;;;27.88;18.92;;;;;;;8.65;100.00;102130.69;5018677;28;20489;-66
2023/04/08 01:00:05;;;;;;;28.20;19.02;;;;;;;8.66;100.00;102125.03;5032489;28;20104;-66
2023/04/08 01:02:45;;;;;;;30.15;18.88;;;;;;;8.67;100.00;102134.03;5054740;28;20052;-65
2023/04/08 01:05:22;;;;;;;31.30;20.23;;;;;;;8.68;100.00;102135.66;5048992;28;20037;-65
2023/04/08 01:07:50;;;;;;;29.60;19.83;;;;;;;8.69;100.00;102129.19;5018654;28;20045;-65
2023/04/08 01:10:27;;;;;;;28.30;18.67;;;;;;;8.70;100.00;102137.09;5044929;28;20053;-65
2023/04/08 01:12:56;;;;;;;30.95;20.33;;;;;;;8.70;100.00;102131.66;5055888;28;20049;-65
2023/04/08 01:15:26;;;;;;;29.10;20.38;;;;;;;8.70;100.00;102133.56;5018166;28;20401;-65
2023/04/08 01:17:55;;;;;;;28.92;18.67;;;;;;;8.70;100.00;102133.56;5034895;28;20124;-66
2023/04/08 01:20:27;;;;;;;31.95;19.88;;;;;;;8.69;100.00;102124.59;5022437;28;20046;-65
2023/04/08 01:23:00;;;;;;;32.53;20.98;;;;;;;8.69;100.00;102134.63;5028184;28;20045;-65
2023/04/08 01:25:38;;;;;;;31.83;20.67;;;;;;;8.64;100.00;102131.75;5059673;28;20041;-65
2023/04/08 01:28:12;;;;;;;31.13;21.58;;;;;;;8.65;100.00;102134.22;4999747;28;20077;-65
2023/04/08 01:30:40;;;;;;;29.63;21.27;;;;;;;8.67;100.00;102134.03;5035540;28;20110;-65
2023/04/08 01:33:11;;;;;;;31.80;21.20;;;;;;;8.68;100.00;102122.94;5045380;28;20103;-65
2023/04/08 01:35:39;;;;;;;42.95;22.77;;;;;;;8.69;100.00;102130.03;5068759;28;20131;-66
2023/04/08 01:38:09;;;;;;;32.60;21.42;;;;;;;8.68;100.00;102131.09;5037828;28;20053;-65
2023/04/08 01:40:38;;;;;;;33.58;22.67;;;;;;;8.69;100.00;102131.91;5018917;28;20046;-66
2023/04/08 01:43:08;;;;;;;34.72;21.98;;;;;;;8.70;100.00;102139.81;5038082;28;20103;-65
2023/04/08 01:45:38;;;;;;;30.90;22.15;;;;;;;8.70;100.00;102139.81;5034857;28;20068;-65
2023/04/08 01:48:07;;;;;;;31.02;21.77;;;;;;;8.71;100.00;102138.78;5044595;28;20068;-65
2023/04/08 01:50:35;;;;;;;33.72;22.67;;;;;;;8.69;100.00;102148.22;5034068;28;20045;-66
2023/04/08 01:53:03;;;;;;;34.88;23.65;;;;;;;8.67;100.00;102150.31;5028653;28;20077;-66
2023/04/08 01:55:33;;;;;;;36.28;23.75;;;;;;;8.62;100.00;102153.72;5030759;28;20042;-65
2023/04/08 01:58:01;;;;;;;32.08;22.20;;;;;;;8.63;100.00;102149.09;5018643;28;20124;-65
2023/04/08 02:00:30;;;;;;;31.83;22.00;;;;;;;8.65;100.00;102147.81;5031123;28;20053;-65
2023/04/08 02:02:59;;;;;;;31.50;22.20;;;;;;;8.67;100.00;102153.03;5014574;28;20153;-65
2023/04/08 02:05:27;;;;;;;37.70;24.00;;;;;;;8.70;100.00;102149.88;5024477;28;20056;-64
2023/04/08 02:07:55;;;;;;;31.60;23.92;;;;;;;8.72;100.00;102153.19;5035430;28;20052;-66
2023/04/08 02:10:22;;;;;;;35.25;24.00;;;;;;;8.72;100.00;102153.19;5034899;28;20046;-65
2023/04/08 02:12:50;;;;;;;29.88;23.10;;;;;;;8.71;100.00;102141.50;5035229;28;20453;-65
2023/04/08 02:15:18;;;;;;;35.33;24.10;;;;;;;8.71;100.00;102148.84;5026445;28;20057;-65
2023/04/08 02:17:55;;;;;;;35.55;24.33;;;;;;;8.71;100.00;102148.84;5032635;28;20072;-66
2023/04/08 02:20:30;;;;;;;35.38;24.90;;;;;;;8.71;100.00;102154.25;5001264;28;20465;-66
2023/04/08 02:23:20;;;;;;;38.03;24.13;;;;;;;8.71;100.00;102162.41;5033714;28;20053;-66
2023/04/08 02:25:49;;;;;;;31.08;23.33;;;;;;;8.70;100.00;102155.31;5036780;28;20382;-66
2023/04/08 02:28:18;;;;;;;35.17;24.25;;;;;;;8.70;100.00;102160.72;5016996;28;20460;-65
2023/04/08 02:30:50;;;;;;;33.95;24.15;;;;;;;8.70;100.00;102147.97;5033186;28;20065;-65
2023/04/08 02:33:20;;;;;;;36.90;25.98;;;;;;;8.71;100.00;102151.53;5016977;28;20497;-65
2023/04/08 02:35:49;;;;;;;33.75;24.05;;;;;;;8.71;100.00;102156.97;5048777;28;20425;-65
2023/04/08 02:38:17;;;;;;;36.92;24.85;;;;;;;8.71;100.00;102162.41;5036835;28;20103;-65
2023/04/08 02:40:45;;;;;;;31.67;24.60;;;;;;;8.69;100.00;102159.91;5053210;28;20098;-65
2023/04/08 02:43:12;;;;;;;31.77;24.27;;;;;;;8.70;100.00;102163.44;5054564;28;20099;-65
2023/04/08 02:45:42;;;;;;;32.72;23.75;;;;;;;8.72;100.00;102155.91;5042940;28;20128;-66
2023/04/08 02:48:10;;;;;;;35.45;24.38;;;;;;;8.71;100.00;102160.53;5031363;28;20052;-66
2023/04/08 02:50:38;;;;;;;33.83;25.58;;;;;;;8.71;100.00;102157.81;5052473;28;20489;-66
2023/04/08 02:53:08;;;;;;;34.45;24.92;;;;;;;8.70;100.00;102155.31;5069475;28;20041;-66
2023/04/08 02:55:39;;;;;;;35.58;26.10;;;;;;;8.70;100.00;102160.72;5063509;28;20091;-64
2023/04/08 02:58:07;;;;;;;34.33;24.65;;;;;;;8.68;100.00;102154.69;5043431;28;20055;-65
2023/04/08 03:00:36;;;;;;;33.13;25.45;;;;;;;8.67;100.00;102158.47;5052949;28;20098;-66
2023/04/08 03:03:03;;;;;;;36.30;26.63;;;;;;;8.65;100.00;102164.13;5036716;28;20045;-66
2023/04/08 03:05:32;;;;;;;33.47;25.23;;;;;;;8.65;100.00;102163.28;5032508;28;20050;-65
2023/04/08 03:08:00;;;;;;;32.17;25.55;;;;;;;8.65;100.00;102163.28;5021126;28;20143;-65
2023/04/08 03:10:27;;;;;;;42.70;26.05;;;;;;;8.65;100.00;102160.56;5051841;28;20055;-66
2023/04/08 03:12:55;;;;;;;35.40;27.13;;;;;;;8.64;100.00;102161.66;5054204;28;20102;-66
2023/04/08 03:15:23;;;;;;;36.10;26.83;;;;;;;8.64;100.00;102157.03;5054039;28;20120;-65
2023/04/08 03:17:51;;;;;;;42.65;28.95;;;;;;;8.64;100.00;102164.34;5035256;28;20037;-66
2023/04/08 03:20:18;;;;;;;41.25;27.52;;;;;;;8.64;100.00;102167.06;5036181;28;20127;-66
2023/04/08 03:22:46;;;;;;;39.92;27.25;;;;;;;8.63;100.00;102165.41;5050734;28;20136;-65
2023/04/08 03:25:14;;;;;;;36.90;26.48;;;;;;;8.62;100.00;102170.00;5044474;28;20056;-66
2023/04/08 03:27:41;;;;;;;38.28;27.00;;;;;;;8.61;100.00;102164.78;5033325;28;20073;-65
2023/04/08 03:30:09;;;;;;;39.05;27.88;;;;;;;8.60;100.00;102163.97;5047797;28;20076;-66
2023/04/08 03:32:37;;;;;;;36.08;27.50;;;;;;;8.60;100.00;102168.56;5069117;28;20049;-65
2023/04/08 03:35:06;;;;;;;43.33;27.33;;;;;;;8.60;100.00;102166.69;5035671;28;20096;-65
2023/04/08 03:37:33;;;;;;;38.50;27.00;;;;;;;8.62;100.00;102163.75;5035982;28;20064;-65
2023/04/08 03:40:01;;;;;;;36.65;26.90;;;;;;;8.63;100.00;102168.13;5024463;28;20485;-65
2023/04/08 03:42:29;;;;;;;41.33;28.67;;;;;;;8.63;100.00;102173.53;5036308;28;20049;-68
2023/04/08 03:44:57;;;;;;;40.33;27.70;;;;;;;8.62;100.00;102170.00;5041843;28;20140;-66
2023/04/08 03:47:26;;;;;;;36.17;25.90;;;;;;;8.62;100.00;102169.19;5033619;28;20132;-65
2023/04/08 03:49:53;;;;;;;34.80;26.70;;;;;;;8.64;100.00;102172.50;5037851;28;20057;-66
2023/04/08 03:52:21;;;;;;;35.72;25.95;;;;;;;8.64;100.00;102178.78;5070058;28;20045;-65
2023/04/08 03:54:49;;;;;;;34.85;25.70;;;;;;;8.63;100.00;102176.25;5061998;28;20084;-64
2023/04/08 03:57:17;;;;;;;37.65;26.17;;;;;;;8.62;100.00;102182.75;5045941;28;20049;-65
2023/04/08 03:59:44;;;;;;;31.65;23.70;;;;;;;8.62;100.00;102180.03;5042037;28;20120;-65
2023/04/08 04:02:12;;;;;;;35.80;24.35;;;;;;;8.60;100.00;102182.16;5056498;28;20072;-65
2023/04/08 04:04:40;;;;;;;31.05;23.77;;;;;;;8.61;100.00;102178.38;5056889;28;20061;-65
2023/04/08 04:07:08;;;;;;;31.35;23.98;;;;;;;8.62;100.00;102177.31;5067411;28;20160;-65
2023/04/08 04:09:35;;;;;;;31.38;24.15;;;;;;;8.62;100.00;102185.47;5032564;28;20057;-66
2023/04/08 04:12:03;;;;;;;32.13;23.52;;;;;;;8.61;100.00;102190.09;5000994;28;20042;-65
2023/04/08 04:14:31;;;;;;;33.92;24.17;;;;;;;8.62;100.00;102190.91;5025388;28;20045;-66
2023/04/08 04:16:58;;;;;;;31.85;23.40;;;;;;;8.61;100.00;102191.94;5033318;28;20108;-66
2023/04/08 04:19:30;;;;;;;28.77;23.48;;;;;;;8.60;100.00;102193.00;5048973;28;20382;-65
2023/04/08 04:21:59;;;;;;;33.28;23.83;;;;;;;8.58;100.00;102197.84;5040419;28;20052;-65
2023/04/08 04:24:26;;;;;;;31.40;24.00;;;;;;;8.56;100.00;102187.19;5034330;28;20497;-65
2023/04/08 04:26:54;;;;;;;29.13;22.40;;;;;;;8.57;100.00;102204.34;5032466;28;20494;-64
2023/04/08 04:29:22;;;;;;;31.17;22.58;;;;;;;8.59;100.00;102205.78;5048607;28;20461;-65
2023/04/08 04:31:50;;;;;;;27.42;21.35;;;;;;;8.59;100.00;102197.63;5036314;28;20045;-65
2023/04/08 04:34:17;;;;;;;28.10;21.02;;;;;;;8.59;100.00;102203.06;5017179;28;20049;-64
2023/04/08 04:36:45;;;;;;;24.85;19.75;;;;;;;8.60;100.00;102206.59;5035960;28;20494;-65
2023/04/08 04:39:13;;;;;;;27.88;21.70;;;;;;;8.59;100.00;102207.66;5033204;28;20148;-65
2023/04/08 04:41:40;;;;;;;26.30;21.30;;;;;;;8.58;100.00;102211.41;5018558;28;20528;-66
2023/04/08 04:44:08;;;;;;;28.98;22.23;;;;;;;8.56;100.00;102208.09;5036446;28;20095;-65
2023/04/08 04:46:35;;;;;;;28.65;22.52;;;;;;;8.57;100.00;102220.63;5032449;28;20050;-65
2023/04/08 04:49:03;;;;;;;27.13;21.33;;;;;;;8.56;100.00;102227.09;5017218;28;20053;-64
2023/04/08 04:51:34;;;;;;;28.15;20.15;;;;;;;8.58;100.00;102220.41;5015329;28;20588;-66
2023/04/08 04:54:02;;;;;;;26.05;19.67;;;;;;;8.59;100.00;102232.13;5034505;28;20566;-65
2023/04/08 04:56:30;;;;;;;26.52;20.85;;;;;;;8.59;100.00;102232.13;5042675;28;20040;-66
2023/04/08 04:58:57;;;;;;;25.08;19.27;;;;;;;8.58;100.00;102228.53;5035919;28;20045;-65
2023/04/08 05:01:25;;;;;;;25.48;19.30;;;;;;;8.58;100.00;102233.97;5038546;28;20101;-65
2023/04/08 05:03:53;;;;;;;23.42;19.02;;;;;;;8.61;100.00;102229.97;5058211;28;20417;-65
2023/04/08 05:06:22;;;;;;;23.85;19.20;;;;;;;8.61;100.00;102238.13;5040570;28;20049;-65
2023/04/08 05:08:50;;;;;;;29.20;20.77;;;;;;;8.58;100.00;102238.59;5036043;28;20089;-66
2023/04/08 05:11:20;;;;;;;27.75;20.58;;;;;;;8.56;100.00;102240.69;5035250;28;20042;-66
2023/04/08 05:13:48;;;;;;;26.02;20.63;;;;;;;8.55;100.00;102248.00;5035305;28;20052;-66
2023/04/08 05:16:16;;;;;;;25.02;19.90;;;;;;;8.50;100.00;102247.84;5024081;28;20047;-65
2023/04/08 05:18:44;;;;;;;24.70;19.85;;;;;;;8.46;100.00;102252.84;5038995;28;20071;-65
2023/04/08 05:21:12;;;;;;;26.20;18.17;;;;;;;8.46;100.00;102252.84;5073358;28;20072;-66
2023/04/08 05:23:40;;;;;;;20.17;17.63;;;;;;;8.44;100.00;102249.56;5058650;28;20073;-65
2023/04/08 05:26:08;;;;;;;24.02;18.48;;;;;;;8.40;100.00;102253.75;5052042;28;20520;-65
2023/04/08 05:28:36;;;;;;;23.65;19.60;;;;;;;8.42;100.00;102257.09;5057321;28;20401;-66
2023/04/08 05:31:03;;;;;;;26.23;21.45;;;;;;;8.40;100.00;102261.91;5063158;28;20049;-65
2023/04/08 05:33:32;;;;;;;26.40;21.55;;;;;;;8.38;100.00;102255.00;5078340;28;20048;-65
2023/04/08 05:36:00;;;;;;;26.65;22.42;;;;;;;8.32;100.00;102252.09;5039287;28;20041;-67
2023/04/08 05:38:28;;;;;;;28.25;24.10;;;;;;;8.25;100.00;102256.72;5018023;28;20052;-67
2023/04/08 05:40:55;;;;;;;28.58;23.63;;;;;;;8.21;100.00;102258.22;5035937;28;20046;-65
2023/04/08 05:43:23;;;;;;;26.98;21.58;;;;;;;8.23;100.00;102268.84;5034904;28;20049;-64
2023/04/08 05:45:51;;;;;;;26.75;21.50;;;;;;;8.25;100.00;102272.16;5033762;28;20080;-66
2023/04/08 05:48:18;;;;;;;25.67;20.52;;;;;;;8.30;100.00;102266.94;5012606;28;20099;-66
2023/04/08 05:50:47;;;;;;;24.40;19.50;;;;;;;8.36;100.00;102268.78;5054888;28;20049;-65
2023/04/08 05:53:15;;;;;;;24.02;18.73;;;;;;;8.39;100.00;102271.03;5054463;28;20401;-65
2023/04/08 05:55:42;;;;;;;21.67;17.98;;;;;;;8.42;100.00;102276.09;5037051;28;20056;-66
2023/04/08 05:58:10;;;;;;;24.75;19.90;;;;;;;8.41;100.00;102282.56;5022510;28;20053;-66
2023/04/08 06:00:38;;;;;;;27.17;21.83;;;;;;;8.29;100.00;102290.53;5037444;28;20180;-66
2023/04/08 06:03:06;;;;;;;27.00;21.98;;;;;;;8.22;100.00;102278.03;5036460;28;20481;-66
2023/04/08 06:05:34;;;;;;;26.70;21.15;;;;;;;8.20;100.00;102288.28;5034965;28;20044;-66
2023/04/08 06:08:01;;;;;;;27.10;22.40;;;;;;;8.20;100.00;102282.84;5032013;28;20045;-65
2023/04/08 06:10:29;;;;;;;28.25;23.90;;;;;;;8.23;100.00;102290.59;5030103;28;20121;-65
2023/04/08 06:12:57;;;;;;;29.85;24.85;;;;;;;8.22;100.00;102288.91;5014647;28;20077;-65
2023/04/08 06:15:26;;;;;;;30.15;24.63;;;;;;;8.22;100.00;102291.63;5019393;28;20463;-69
2023/04/08 06:17:54;;;;;;;34.13;27.42;;;;;;;8.19;100.00;102294.78;5034567;28;20049;-68
2023/04/08 06:20:22;;;;;;;34.45;26.80;;;;;;;8.17;100.00;102291.44;5014830;28;20469;-64
2023/04/08 06:22:50;;;;;;;33.78;25.98;;;;;;;8.02;100.00;102294.41;5054239;28;20478;-66
2023/04/08 06:25:18;;;;;;;33.83;26.98;;;;;;;7.98;100.00;102290.47;5043870;28;20057;-66
2023/04/08 06:27:47;;;;;;;37.60;29.40;;;;;;;7.98;100.00;102298.59;5033141;28;20132;-65
2023/04/08 06:30:15;;;;;;;32.33;25.55;;;;;;;8.01;100.00;102303.59;5044461;28;20468;-65
2023/04/08 06:32:46;;;;;;;36.08;27.88;;;;;;;7.94;100.00;102303.63;5040212;28;20050;-65
2023/04/08 06:35:14;;;;;;;33.95;25.67;;;;;;;7.92;100.00;102304.91;5032594;28;20404;-66
2023/04/08 06:37:42;;;;;;;34.22;26.95;;;;;;;7.87;100.00;102314.50;5047772;28;20041;-65
2023/04/08 06:40:10;;;;;;;35.28;27.40;;;;;;;7.85;100.00;102315.78;5036649;28;20187;-65
2023/04/08 06:42:39;;;;;;;34.85;26.30;;;;;;;7.75;100.00;102318.94;5086878;28;20057;-65
2023/04/08 06:45:17;;;;;;;35.15;27.58;;;;;;;7.69;100.00;102333.31;5016386;28;20123;-65
2023/04/08 06:47:45;;;;;;;34.72;27.30;;;;;;;7.69;100.00;102328.72;5044592;28;20489;-64
2023/04/08 06:50:13;;;;;;;35.45;27.27;;;;;;;7.74;100.00;102324.56;5052586;28;20516;-67
2023/04/08 06:52:40;;;;;;;36.78;26.95;;;;;;;7.81;100.00;102326.19;5050907;28;20058;-65
2023/04/08 06:55:08;;;;;;;30.45;25.05;;;;;;;7.85;100.00;102324.75;5043976;28;20141;-65
2023/04/08 06:57:36;;;;;;;30.02;24.75;;;;;;;7.88;100.00;102326.19;5038697;28;20037;-66
2023/04/08 07:00:04;;;;;;;31.63;23.90;;;;;;;7.85;100.00;102334.75;5037540;28;20044;-65
2023/04/08 07:02:32;;;;;;;27.50;22.10;;;;;;;7.84;100.00;102338.50;5053863;28;20124;-63
2023/04/08 07:05:00;;;;;;;28.63;22.08;;;;;;;7.87;100.00;102346.25;5041456;28;20057;-62
2023/04/08 07:07:27;;;;;;;26.67;21.10;;;;;;;7.84;100.00;102346.66;5034040;28;20432;-64
2023/04/08 07:09:55;;;;;;;25.08;19.77;;;;;;;7.82;100.00;102346.06;5016521;28;20435;-65
2023/04/08 07:12:23;;;;;;;27.13;21.02;;;;;;;7.84;100.00;102352.06;5032344;28;20462;-65
2023/04/08 07:14:52;;;;;;;24.40;19.55;;;;;;;7.84;100.00;102352.06;5033779;28;20092;-67
2023/04/08 07:17:19;;;;;;;23.50;18.67;;;;;;;7.84;100.00;102362.94;5035106;28;20052;-66
2023/04/08 07:19:48;;;;;;;22.23;19.20;;;;;;;7.87;100.00;102365.25;5032975;28;20128;-65
2023/04/08 07:22:16;;;;;;;22.60;18.98;;;;;;;7.86;100.00;102363.56;5016412;28;20052;-64
2023/04/08 07:24:48;;;;;;;21.70;17.92;;;;;;;7.79;100.00;102370.88;5034004;28;20069;-65
2023/04/08 07:27:16;;;;;;;21.67;18.80;;;;;;;7.82;100.00;102373.19;5033074;28;20056;-64
2023/04/08 07:29:44;;;;;;;21.80;18.48;;;;;;;7.80;100.00;102378.00;5034039;28;20044;-65
2023/04/08 07:32:11;;;;;;;22.65;18.00;;;;;;;7.80;100.00;102376.09;5016432;28;20041;-63
2023/04/08 07:34:39;;;;;;;24.25;19.25;;;;;;;7.84;100.00;102373.78;5031298;28;20092;-65
2023/04/08 07:37:07;;;;;;;24.65;18.80;;;;;;;7.82;100.00;102375.91;5044038;28;20083;-65
2023/04/08 07:39:35;;;;;;;22.70;18.58;;;;;;;7.81;100.00;102376.94;5048360;28;20045;-64
2023/04/08 07:42:03;;;;;;;21.73;18.35;;;;;;;7.82;100.00;102386.75;5046517;28;20042;-64
2023/04/08 07:44:30;;;;;;;19.60;17.00;;;;;;;7.74;100.00;102389.66;5033446;28;20053;-65
2023/04/08 07:46:58;;;;;;;19.83;17.35;;;;;;;7.74;100.00;102390.50;5055112;28;20106;-64
2023/04/08 07:49:26;;;;;;;19.70;16.13;;;;;;;7.66;100.00;102390.72;5037602;28;20504;-62
2023/04/08 07:51:54;;;;;;;18.73;15.90;;;;;;;7.55;100.00;102391.34;5039235;28;20071;-64
2023/04/08 07:54:22;;;;;;;19.48;16.75;;;;;;;7.55;100.00;102396.78;5045815;28;20129;-64
2023/04/08 07:56:49;;;;;;;18.65;16.30;;;;;;;7.56;100.00;102393.84;5042239;28;20055;-64
2023/04/08 07:59:17;;;;;;;19.90;15.90;;;;;;;7.63;100.00;102391.97;5032302;28;20053;-62
2023/04/08 08:01:45;;;;;;;18.45;15.82;;;;;;;7.56;100.00;102395.75;5034105;28;20494;-64
2023/04/08 08:04:13;;;;;;;22.05;14.63;;;;;;;7.46;100.00;102396.16;5038507;28;20051;-64
2023/04/08 08:06:41;;;;;;;16.98;14.55;;;;;;;7.37;100.00;102394.69;5045707;28;20210;-64
2023/04/08 08:09:09;;;;;;;19.73;15.85;;;;;;;7.42;100.00;102397.63;5051743;28;20076;-65
2023/04/08 08:11:37;;;;;;;17.42;14.52;;;;;;;7.33;100.00;102401.56;5033350;28;20125;-65
2023/04/08 08:14:04;;;;;;;19.65;15.60;;;;;;;7.35;100.00;102402.19;5027094;28;20079;-64
2023/04/08 08:16:32;;;;;;;18.83;15.75;;;;;;;7.42;100.00;102398.44;5036411;28;20087;-63
2023/04/08 08:19:00;;;;;;;17.25;15.35;;;;;;;7.47;100.00;102408.66;5035813;28;20062;-64
2023/04/08 08:21:29;;;;;;;17.75;15.65;;;;;;;7.56;100.00;102410.13;5045696;28;20056;-64
2023/04/08 08:23:58;;;;;;;17.23;15.23;;;;;;;7.55;100.00;102410.34;5016188;28;20081;-67
2023/04/08 08:26:28;;;;;;;17.88;14.73;;;;;;;7.62;100.00;102413.88;5044690;28;20060;-66
2023/04/08 08:28:55;;;;;;;17.55;15.15;;;;;;;7.53;100.00;102415.97;5009102;28;20087;-67
2023/04/08 08:31:23;;;;;;;17.52;14.77;;;;;;;7.39;100.00;102417.84;5035775;28;20140;-66
2023/04/08 08:33:51;;;;;;;18.48;15.68;;;;;;;7.35;100.00;102421.19;5036155;28;20038;-66
2023/04/08 08:36:19;;;;;;;18.17;14.82;;;;;;;7.41;100.00;102423.06;5019243;28;20077;-64
2023/04/08 08:38:46;;;;;;;18.60;16.15;;;;;;;7.49;100.00;102431.00;5036980;28;20053;-67
2023/04/08 08:41:14;;;;;;;19.83;16.70;;;;;;;7.55;100.00;102435.59;5019018;28;20049;-66
2023/04/08 08:43:43;;;;;;;18.70;15.65;;;;;;;7.58;100.00;102435.19;5038197;28;20045;-65
2023/04/08 08:46:12;;;;;;;19.75;15.82;;;;;;;7.65;100.00;102436.03;5046856;28;20136;-66
2023/04/08 08:48:39;;;;;;;19.38;16.23;;;;;;;7.74;100.00;102438.50;5035730;28;20068;-66
2023/04/08 08:51:11;;;;;;;19.40;16.80;;;;;;;7.78;100.00;102439.75;5019422;28;20099;-66
2023/04/08 08:53:43;;;;;;;18.83;16.70;;;;;;;7.83;100.00;102439.97;5036253;28;20461;-65
2023/04/08 08:56:12;;;;;;;19.90;17.10;;;;;;;7.88;100.00;102442.88;5036634;28;20053;-65
2023/04/08 08:58:46;;;;;;;19.13;16.65;;;;;;;7.94;100.00;102442.06;5037631;28;20056;-66
2023/04/08 09:01:31;;;;;;;20.80;16.95;;;;;;;7.92;100.00;102441.44;5040977;28;20525;-68
2023/04/08 09:04:15;;;;;;;19.05;16.58;;;;;;;7.94;100.00;102439.34;5038337;28;20103;-66
2023/04/08 09:06:45;;;;;;;20.08;17.00;;;;;;;8.00;100.00;102438.47;5038048;28;20045;-66
2023/04/08 09:09:13;;;;;;;20.83;17.83;;;;;;;7.99;100.00;102444.13;5033223;28;20497;-67
2023/04/08 09:11:43;;;;;;;19.55;16.80;;;;;;;7.95;100.00;102446.44;5018065;28;20072;-67
2023/04/08 09:14:37;;;;;;;19.77;16.83;;;;;;;7.94;100.00;102439.34;5020907;28;20073;-65
2023/04/08 09:17:06;;;;;;;20.20;17.90;;;;;;;8.01;100.00;102440.16;5035578;28;20053;-66
2023/04/08 09:19:33;;;;;;;21.75;16.88;;;;;;;8.06;100.00;102447.69;5036011;28;20049;-67
2023/04/08 09:22:07;;;;;;;21.58;18.35;;;;;;;8.11;100.00;102446.00;5027848;28;20049;-66
2023/04/08 09:24:36;;;;;;;26.90;21.48;;;;;;;8.13;100.00;102443.06;5032934;28;20045;-67
2023/04/08 09:27:04;;;;;;;25.23;20.05;;;;;;;8.18;100.00;102442.41;5047277;28;20045;-66
2023/04/08 09:29:33;;;;;;;23.35;19.65;;;;;;;8.21;100.00;102455.59;5046662;28;20053;-67
2023/04/08 09:32:04;;;;;;;24.00;19.95;;;;;;;8.19;100.00;102450.34;5047408;28;20104;-64
2023/04/08 09:34:33;;;;;;;25.17;20.17;;;;;;;8.23;100.00;102458.94;5044493;28;20056;-65
2023/04/08 09:37:01;;;;;;;22.90;19.85;;;;;;;8.27;100.00;102460.16;5039159;28;20060;-67
2023/04/08 09:39:29;;;;;;;22.48;19.75;;;;;;;8.29;100.00;102464.31;5038144;28;20454;-69
2023/04/08 09:42:00;;;;;;;21.13;18.30;;;;;;;8.28;100.00;102472.69;5050912;28;20049;-66
2023/04/08 09:44:30;;;;;;;21.83;19.45;;;;;;;8.26;100.00;102478.34;5035464;28;20424;-66
2023/04/08 09:47:04;;;;;;;20.80;18.23;;;;;;;8.23;100.00;102477.94;5018535;28;20476;-66
2023/04/08 09:49:43;;;;;;;21.15;18.27;;;;;;;8.28;100.00;102475.41;5002478;28;20148;-67
2023/04/08 09:52:32;;;;;;;21.00;18.10;;;;;;;8.37;100.00;102486.88;5051393;28;20045;-66
2023/04/08 09:55:03;;;;;;;21.65;17.88;;;;;;;8.42;100.00;102482.53;5037557;28;20546;-67
2023/04/08 09:57:43;;;;;;;22.02;18.15;;;;;;;8.45;100.00;102483.97;5034190;28;20091;-65
2023/04/08 10:00:14;;;;;;;19.80;16.42;;;;;;;8.48;100.00;102489.81;5034695;28;20041;-65
2023/04/08 10:02:45;;;;;;;19.40;17.00;;;;;;;8.51;100.00;102478.53;5049891;28;20532;-65
2023/04/08 10:05:14;;;;;;;23.60;18.42;;;;;;;8.46;100.00;102477.47;5041165;28;20044;-66
2023/04/08 10:07:42;;;;;;;20.98;17.58;;;;;;;8.48;100.00;102478.94;5016191;28;20574;-67
2023/04/08 10:10:10;;;;;;;22.42;17.90;;;;;;;8.50;100.00;102481.44;5033424;28;20046;-67
2023/04/08 10:12:38;;;;;;;21.70;17.70;;;;;;;8.48;100.00;102469.97;5043186;28;20537;-66
2023/04/08 10:15:31;;;;;;;21.40;17.15;;;;;;;8.45;100.00;102468.50;5044141;28;20167;-66
2023/04/08 10:18:05;;;;;;;22.50;17.45;;;;;;;8.51;100.00;102473.09;5045932;28;20053;-66
2023/04/08 10:20:35;;;;;;;19.13;17.02;;;;;;;8.57;100.00;102468.69;5054494;28;20048;-68
2023/04/08 10:23:06;;;;;;;20.52;16.88;;;;;;;8.61;100.00;102453.63;5050026;28;20099;-66
2023/04/08 10:25:40;;;;;;;19.65;16.92;;;;;;;8.68;100.00;102456.31;5036376;28;20133;-66
2023/04/08 10:28:16;;;;;;;19.70;17.00;;;;;;;8.74;100.00;102447.31;5038014;28;20125;-66
2023/04/08 10:30:51;;;;;;;14.93;11.93;;;;;;;8.84;100.00;102450.38;5053436;28;20132;-66
2023/04/08 10:33:32;;;;;;;18.73;16.25;;;;;;;8.91;100.00;102450.34;4351772;28;10000684;-69
2023/04/08 10:36:11;;;;;;;20.65;16.95;;;;;;;8.96;100.00;102445.09;5043153;28;20094;-66
2023/04/08 10:38:41;;;;;;;23.63;18.73;;;;;;;9.01;100.00;102444.44;5032717;28;20057;-67
2023/04/08 10:41:20;;;;;;;20.88;17.95;;;;;;;9.00;100.00;102445.50;5058098;28;20048;-66
2023/04/08 10:43:48;;;;;;;23.83;19.48;;;;;;;9.01;100.00;102439.00;5029480;28;20042;-67
2023/04/08 10:46:16;;;;;;;20.73;18.08;;;;;;;9.04;100.00;102444.84;5036226;28;20132;-66
2023/04/08 10:48:44;;;;;;;19.80;17.45;;;;;;;9.03;100.00;102435.03;5050274;28;20057;-68
2023/04/08 10:51:12;;;;;;;20.05;17.00;;;;;;;9.05;100.00;102443.81;5050955;28;20053;-66
2023/04/08 10:53:40;;;;;;;19.83;17.30;;;;;;;9.06;100.00;102441.91;5061005;28;20512;-67
2023/04/08 10:56:11;;;;;;;23.40;20.85;;;;;;;9.08;100.00;102439.81;5044537;28;20049;-66
2023/04/08 10:58:55;;;;;;;21.95;18.23;;;;;;;9.06;100.00;102441.91;5049236;28;20519;-66
2023/04/08 11:01:23;;;;;;;20.27;17.10;;;;;;;9.15;100.00;102440.59;5033017;28;20553;-66
2023/04/08 11:03:51;;;;;;;21.83;19.02;;;;;;;9.20;100.00;102440.78;5018677;28;20056;-67
2023/04/08 11:06:19;;;;;;;21.65;19.35;;;;;;;9.24;100.00;102436.56;5031870;28;20511;-66
2023/04/08 11:08:47;;;;;;;23.30;19.25;;;;;;;9.29;100.00;102442.19;5046722;28;20051;-67
2023/04/08 11:11:15;;;;;;;27.05;20.67;;;;;;;9.31;100.00;102433.81;5053994;28;20076;-66
2023/04/08 11:13:44;;;;;;;24.90;19.15;;;;;;;9.35;100.00;102440.47;5047736;28;20059;-66
2023/04/08 11:16:24;;;;;;;22.75;19.00;;;;;;;9.40;100.00;102437.91;5033180;28;20486;-65
2023/04/08 11:18:53;;;;;;;25.80;19.75;;;;;;;9.47;100.00;102440.59;5016834;28;20123;-66